Terminal Aerodrome Forecast
Issued by NWS Pueblo, CO

Home | Current Version | Previous Version | Text Only | Print | Product List | Glossary On
Versions: 1 2 3 4 5 6 7 8 9 10 11 12 13 14 15 16 17 18 19 20 21 22 23 24 25 26 27 28 29 30 31 32 33 34 35 36 37 38 39 40
000
FTUS45 KPUB 010523
TAFALS
TAF
KALS 010523Z 0106/0206 11009KT P6SM VCSH OVC040
     FM011100 10009KT 5SM -SN BR OVC025
     FM011900 10012G22KT P6SM VCSH SCT025 OVC040
     FM020200 11008KT P6SM VCSH OVC040=

USA.gov is the U.S. government's official web portal to all federal, state and local government web resources and services.